Rancho Bernardo, California
Current Conditions -  °F | °C
As of 9:53 AM on Thursday 23 Oct 2014 (Local Time) from KRNM Reporting Station
Clear Clear  
Wind Chill: 82°   Ceiling: Unl
Heat Index: 82°   Visibility: 10mi
Dew Point: 30°   Wind: 0mph
Humidity: 15%   Direction: NA
Pressure: 30.03"   Gusts: NA
Location:  33.0024°N, 117.071°W
Report Text: KRNM 231653Z 00000KT 10SM CLR 28/M01 A3003 RMK AO2 SLP153 T02781011
Loading
Personal Weather Stations






























Interactive Weather Map
Tropical Storm Tracking
New forecast layout! Learn more

10-Day Weather Forecast

Advertisements
Track Severe Weather on mobile